Time;durP1;ratioP1;P1;durP2;ratioP2;P2;SDS_P1;SDS_P2;PMS_P1;PMS_P2;Temp;Humidity;BMP_temperature;BMP_pressure;BME280_temperature;BME280_humidity;BME280_pressure;Samples;Min_cycle;Max_cycle;Signal;HPM_P1;HPM_P2
2022/10/08 00:00:54;;;;;;;11.47;6.60;;;;;;;-141.97;59.36;47484.47;4948667;29;20173;-78
2022/10/08 00:03:22;;;;;;;10.00;5.60;;;;;;;-141.97;60.38;47442.19;4934003;29;20677;-78
2022/10/08 00:06:18;;;;;;;8.27;5.67;;;;;;;-141.97;60.87;47496.00;4934101;29;20634;-78
2022/10/08 00:08:49;;;;;;;9.17;5.60;;;;;;;-141.97;60.65;47501.78;4913054;29;20197;-79
2022/10/08 00:11:19;;;;;;;10.10;5.33;;;;;;;-141.97;61.08;47507.53;4913054;29;20174;-77
2022/10/08 00:13:46;;;;;;;9.87;5.70;;;;;;;-141.97;61.52;47474.88;4912763;29;20201;-77
2022/10/08 00:16:36;;;;;;;8.17;5.37;;;;;;;-141.97;61.66;47519.06;4913005;29;20617;-77
2022/10/08 00:19:09;;;;;;;10.87;5.97;;;;;;;-141.97;61.04;47544.06;4912401;29;20205;-77
2022/10/08 00:21:39;;;;;;;9.37;5.40;;;;;;;-141.97;61.25;47499.84;4913277;29;20654;-77
2022/10/08 00:24:07;;;;;;;10.40;5.77;;;;;;;-141.97;60.99;47519.06;4913177;29;20555;-77
2022/10/08 00:26:35;;;;;;;8.13;5.50;;;;;;;-141.97;60.75;47503.69;4912927;29;20253;-78
2022/10/08 00:29:03;;;;;;;14.17;7.13;;;;;;;-141.97;60.27;47544.06;4912767;29;20250;-77
2022/10/08 00:31:35;;;;;;;12.83;7.50;;;;;;;-141.97;60.35;47497.94;4912811;29;20174;-77
2022/10/08 00:34:03;;;;;;;22.10;10.90;;;;;;;-141.97;60.22;47530.59;4912834;29;20197;-78
2022/10/08 00:36:33;;;;;;;19.03;8.20;;;;;;;-141.97;60.30;47536.38;4913090;29;20182;-78
2022/10/08 00:39:04;;;;;;;15.03;8.33;;;;;;;-141.97;60.12;47563.28;4912562;29;20678;-77
2022/10/08 00:41:33;;;;;;;11.40;6.47;;;;;;;-141.97;60.45;47507.53;4912691;29;20616;-77
2022/10/08 00:44:03;;;;;;;13.37;6.70;;;;;;;-141.97;60.46;47497.94;4912601;29;20187;-78
2022/10/08 00:46:47;;;;;;;10.73;6.33;;;;;;;-141.97;60.95;47536.38;4934478;29;20201;-78
2022/10/08 00:49:19;;;;;;;8.43;5.80;;;;;;;-141.97;60.71;47536.38;4937421;29;20224;-78
2022/10/08 00:51:50;;;;;;;8.30;5.80;;;;;;;-141.97;60.94;47661.31;4956487;28;20616;-79
2022/10/08 00:54:18;;;;;;;11.40;5.97;;;;;;;-141.97;61.14;47488.31;4975678;28;20216;-78
2022/10/08 00:56:46;;;;;;;9.73;6.10;;;;;;;-141.97;61.36;47492.16;4975906;28;20168;-78
2022/10/08 00:59:12;;;;;;;12.73;6.30;;;;;;;-141.97;61.74;47522.91;4974769;28;20183;-77
2022/10/08 01:01:40;;;;;;;8.23;5.67;;;;;;;-141.97;61.56;47503.69;4975736;28;20195;-78
2022/10/08 01:04:06;;;;;;;9.63;5.70;;;;;;;-141.97;61.54;47553.69;4975536;28;20196;-78
2022/10/08 01:07:07;;;;;;;8.60;5.10;;;;;;;-141.97;60.97;47496.00;4975701;28;20164;-78
2022/10/08 01:09:50;;;;;;;10.43;5.80;;;;;;;-141.97;61.31;47522.91;4915884;29;20693;-78
2022/10/08 01:12:22;;;;;;;8.50;5.10;;;;;;;-141.97;61.77;47501.78;4915909;29;20178;-78
2022/10/08 01:14:58;;;;;;;8.93;5.40;;;;;;;-141.97;61.98;47511.38;4915883;29;20190;-78
2022/10/08 01:17:35;;;;;;;7.57;5.33;;;;;;;-141.97;61.91;47494.09;4915823;29;20234;-78
2022/10/08 01:20:03;;;;;;;10.67;5.37;;;;;;;-141.97;61.80;47522.91;4915902;29;20249;-78
2022/10/08 01:22:29;;;;;;;9.70;5.30;;;;;;;-141.97;61.52;47532.53;4915725;29;20200;-78
2022/10/08 01:25:36;;;;;;;9.23;5.37;;;;;;;-141.97;61.51;47515.22;4915698;29;20786;-78
2022/10/08 01:28:05;;;;;;;11.50;5.73;;;;;;;-141.97;61.80;47507.53;4915615;29;20198;-77
2022/10/08 01:30:34;;;;;;;8.90;5.43;;;;;;;-141.97;61.88;47524.84;4915553;29;20210;-77
2022/10/08 01:33:11;;;;;;;10.07;5.53;;;;;;;-141.97;62.18;47513.31;4915432;29;20205;-77
2022/10/08 01:35:43;;;;;;;10.10;5.70;;;;;;;-141.97;62.35;47526.75;4915672;29;20190;-77
2022/10/08 01:38:18;;;;;;;7.47;5.23;;;;;;;-141.97;62.35;47561.38;4915503;29;20186;-77
2022/10/08 01:40:46;;;;;;;9.77;5.67;;;;;;;-141.97;62.85;47511.38;4915623;29;20193;-77
2022/10/08 01:43:15;;;;;;;9.27;5.47;;;;;;;-141.97;62.81;47515.22;4915383;29;20178;-77
2022/10/08 01:45:48;;;;;;;10.43;5.93;;;;;;;-141.97;62.67;47524.84;4928951;28;20190;-77
2022/10/08 01:48:19;;;;;;;11.30;5.30;;;;;;;-141.97;62.60;47507.53;4973579;28;20176;-77
2022/10/08 01:50:56;;;;;;;9.27;5.90;;;;;;;-141.97;62.80;47463.34;4975014;28;20235;-79
2022/10/08 01:53:27;;;;;;;11.13;5.93;;;;;;;-141.97;62.60;47517.16;4974838;28;20175;-78
2022/10/08 01:55:54;;;;;;;8.47;5.73;;;;;;;-141.97;62.63;47497.94;4974469;28;20220;-78
2022/10/08 01:58:32;;;;;;;8.07;5.17;;;;;;;-141.97;62.61;47530.59;4974588;28;20180;-78
2022/10/08 02:01:07;;;;;;;8.13;5.30;;;;;;;-141.97;63.34;47513.31;4974544;28;20223;-77
2022/10/08 02:03:33;;;;;;;7.80;5.47;;;;;;;-141.97;63.56;47526.75;4974580;28;20529;-77
2022/10/08 02:06:02;;;;;;;9.57;5.77;;;;;;;-141.97;63.92;47503.69;4974452;28;20183;-77
2022/10/08 02:08:27;;;;;;;8.47;5.73;;;;;;;-141.97;64.08;47524.84;4974610;28;20176;-77
2022/10/08 02:10:53;;;;;;;11.60;5.60;;;;;;;-141.97;64.25;47546.00;4974282;28;20203;-77
2022/10/08 02:13:19;;;;;;;8.67;5.47;;;;;;;-141.97;64.72;47482.56;4973438;28;20557;-77
2022/10/08 02:16:07;;;;;;;8.47;5.30;;;;;;;-141.97;64.70;47463.34;4972930;28;20172;-77
2022/10/08 02:18:44;;;;;;;9.20;5.37;;;;;;;-141.97;64.90;47544.06;4974520;28;20636;-77
2022/10/08 02:21:23;;;;;;;10.63;5.63;;;;;;;-141.97;65.34;47507.53;4974262;28;20216;-77
2022/10/08 02:23:55;;;;;;;11.60;5.27;;;;;;;-141.97;65.72;47488.31;4974496;28;20180;-77
2022/10/08 02:26:28;;;;;;;12.80;6.20;;;;;;;-141.97;65.92;47617.09;4974320;28;20176;-77
2022/10/08 02:28:59;;;;;;;13.03;6.27;;;;;;;-141.97;66.34;47499.84;4973890;28;20168;-77
2022/10/08 02:31:33;;;;;;;10.67;5.87;;;;;;;-141.97;66.21;47469.09;4974102;28;20176;-78
2022/10/08 02:34:10;;;;;;;11.23;6.50;;;;;;;-141.97;65.90;47534.44;4973951;28;20175;-78
2022/10/08 02:36:41;;;;;;;10.27;6.00;;;;;;;-141.97;65.38;47547.91;4973834;28;20647;-77
2022/10/08 02:39:08;;;;;;;9.30;5.43;;;;;;;-141.97;65.58;47530.59;4988753;28;20176;-77
2022/10/08 02:41:39;;;;;;;11.97;6.07;;;;;;;-141.97;65.82;47626.72;4974080;28;20183;-78
2022/10/08 02:44:12;;;;;;;10.27;6.20;;;;;;;-141.97;65.93;47503.69;4973883;28;20176;-78
2022/10/08 02:46:41;;;;;;;9.47;6.30;;;;;;;-141.97;65.72;47521.00;4974196;28;20176;-77
2022/10/08 02:49:13;;;;;;;11.73;6.07;;;;;;;-141.97;65.85;47501.78;4972490;28;20219;-77
2022/10/08 02:51:44;;;;;;;12.40;6.40;;;;;;;-141.97;65.79;47530.59;4973774;28;20164;-77
2022/10/08 02:54:10;;;;;;;10.27;6.27;;;;;;;-141.97;65.82;47553.69;4972322;28;20224;-77
2022/10/08 02:57:25;;;;;;;11.83;6.43;;;;;;;-141.97;66.66;47524.84;4973489;28;20195;-77
2022/10/08 02:59:51;;;;;;;15.47;6.90;;;;;;;-141.97;66.08;47638.25;4913850;29;20253;-78
2022/10/08 03:02:31;;;;;;;12.40;7.20;;;;;;;-141.97;66.67;47497.94;4897830;29;20178;-78
2022/10/08 03:05:01;;;;;;;11.37;6.53;;;;;;;-141.97;66.74;47484.47;4914205;29;20217;-78
2022/10/08 03:07:30;;;;;;;11.30;6.37;;;;;;;-141.97;67.23;47534.44;4914121;29;20242;-78
2022/10/08 03:09:56;;;;;;;11.73;6.70;;;;;;;-141.97;67.41;47615.19;4913638;29;20234;-77
2022/10/08 03:12:23;;;;;;;14.07;6.90;;;;;;;-141.97;67.24;47424.91;4897955;29;20178;-78
2022/10/08 03:14:51;;;;;;;11.87;6.93;;;;;;;-141.97;67.96;47511.38;4913846;29;20357;-78
2022/10/08 03:17:23;;;;;;;11.93;7.10;;;;;;;-141.97;67.97;47419.13;4913639;29;20658;-78
2022/10/08 03:19:49;;;;;;;10.37;6.43;;;;;;;-141.97;67.94;47661.31;4913717;29;20232;-77
2022/10/08 03:22:15;;;;;;;13.07;7.23;;;;;;;-141.97;68.75;47492.16;4913851;29;20284;-78
2022/10/08 03:24:40;;;;;;;11.97;6.67;;;;;;;-141.97;68.33;47513.31;4913752;29;20277;-78
2022/10/08 03:27:05;;;;;;;10.77;6.57;;;;;;;-141.97;68.37;47542.16;4897763;29;20182;-78
2022/10/08 03:29:31;;;;;;;12.90;6.50;;;;;;;-141.97;68.42;47534.44;4897568;29;20741;-78
2022/10/08 03:31:56;;;;;;;9.13;6.03;;;;;;;-141.97;68.17;47515.22;4897834;29;20182;-78
2022/10/08 03:34:24;;;;;;;10.83;6.10;;;;;;;-141.97;68.09;47515.22;4913223;29;20182;-78
2022/10/08 03:36:49;;;;;;;9.87;6.13;;;;;;;-141.97;69.97;47522.91;4966398;28;20218;-79
2022/10/08 03:39:15;;;;;;;10.90;6.37;;;;;;;-141.97;70.30;47546.00;4953427;28;20653;-78
2022/10/08 03:41:40;;;;;;;9.23;6.10;;;;;;;-141.97;70.24;47499.84;4952403;29;20625;-77
2022/10/08 03:44:08;;;;;;;11.13;6.23;;;;;;;-141.97;70.17;47442.19;4953640;28;20175;-78
2022/10/08 03:46:33;;;;;;;11.57;6.40;;;;;;;-141.97;70.07;47534.44;4952202;29;20247;-78
2022/10/08 03:48:59;;;;;;;9.77;6.03;;;;;;;-141.97;69.68;47622.88;4952413;29;20181;-78
2022/10/08 03:51:25;;;;;;;11.87;6.40;;;;;;;-141.97;69.65;47515.22;4953350;28;20177;-78
2022/10/08 03:53:50;;;;;;;10.60;6.57;;;;;;;-141.97;69.34;47507.53;4953002;28;20562;-79
2022/10/08 03:56:18;;;;;;;12.43;6.37;;;;;;;-141.97;69.95;47505.63;4953421;28;20175;-79
2022/10/08 03:58:44;;;;;;;16.70;7.80;;;;;;;-141.97;70.24;47509.47;4953289;28;20701;-79
2022/10/08 04:01:13;;;;;;;12.50;6.83;;;;;;;-141.97;70.23;47617.09;4953490;28;20177;-79
2022/10/08 04:03:38;;;;;;;10.37;6.57;;;;;;;-141.97;70.18;47542.16;4953431;28;20173;-79
2022/10/08 04:06:04;;;;;;;13.03;6.87;;;;;;;-141.97;70.03;47546.00;4953627;28;20177;-78
2022/10/08 04:08:29;;;;;;;14.47;7.43;;;;;;;-141.97;71.31;47536.38;4953222;28;20172;-78
2022/10/08 04:10:55;;;;;;;22.80;9.80;;;;;;;-141.97;72.24;47496.00;4952959;28;20208;-78
2022/10/08 04:13:20;;;;;;;13.23;7.33;;;;;;;-141.97;71.92;47538.28;4953304;28;20254;-79
2022/10/08 04:15:47;;;;;;;15.23;7.60;;;;;;;-141.97;72.20;47536.38;4953147;28;20168;-78
2022/10/08 04:18:13;;;;;;;22.67;8.20;;;;;;;-141.97;72.46;47546.00;4955558;28;20184;-78
2022/10/08 04:20:39;;;;;;;17.73;8.20;;;;;;;-141.97;73.21;47519.06;4971949;28;20191;-78
2022/10/08 04:23:06;;;;;;;21.13;8.00;;;;;;;-141.97;72.37;47511.38;4976705;28;20175;-78
2022/10/08 04:25:31;;;;;;;18.33;8.10;;;;;;;-141.97;72.50;47522.91;4976149;28;20184;-80
2022/10/08 04:27:57;;;;;;;17.77;8.03;;;;;;;-141.97;72.02;47540.22;4976089;28;20496;-78
2022/10/08 04:30:23;;;;;;;17.93;7.87;;;;;;;-141.97;71.71;47547.91;4975986;28;20221;-78
2022/10/08 04:32:49;;;;;;;18.23;8.13;;;;;;;-141.97;70.90;47536.38;4976257;28;20215;-78
2022/10/08 04:35:14;;;;;;;23.03;8.73;;;;;;;-141.97;70.66;47555.59;4976319;28;20165;-78
2022/10/08 04:37:39;;;;;;;18.13;8.20;;;;;;;-141.97;70.67;47522.91;4976382;28;20168;-78
2022/10/08 04:40:05;;;;;;;19.50;7.97;;;;;;;-141.97;70.40;47492.16;4975589;28;20168;-78
2022/10/08 04:42:31;;;;;;;15.53;7.87;;;;;;;-141.97;69.86;47499.84;4976751;28;20176;-78
2022/10/08 04:44:56;;;;;;;15.30;7.57;;;;;;;-141.97;70.28;47515.22;4976291;28;20173;-77
2022/10/08 04:47:21;;;;;;;16.60;7.37;;;;;;;-141.97;70.11;47549.84;4976168;28;20176;-78
2022/10/08 04:49:47;;;;;;;15.00;7.13;;;;;;;-141.97;70.38;47534.44;4974625;28;20195;-78
2022/10/08 04:52:15;;;;;;;13.43;7.77;;;;;;;-141.97;70.05;47521.00;4953452;28;20184;-78
2022/10/08 04:54:41;;;;;;;18.97;7.47;;;;;;;-141.97;70.67;47521.00;4952817;28;20712;-78
2022/10/08 04:57:06;;;;;;;14.80;6.93;;;;;;;-141.97;70.01;47559.44;4955309;29;20176;-78
2022/10/08 04:59:32;;;;;;;13.90;7.97;;;;;;;-141.97;70.96;47515.22;4956551;28;20180;-80
2022/10/08 05:01:58;;;;;;;14.63;8.13;;;;;;;-141.97;69.94;47499.84;4956341;28;20168;-78
2022/10/08 05:04:23;;;;;;;18.10;10.97;;;;;;;-141.97;69.31;47471.03;4956329;28;20207;-79
2022/10/08 05:06:48;;;;;;;26.17;15.23;;;;;;;-141.97;70.04;47546.00;4956375;29;20173;-78
2022/10/08 05:09:14;;;;;;;28.67;12.23;;;;;;;-141.97;71.66;47521.00;4956247;28;20195;-78
2022/10/08 05:11:40;;;;;;;22.93;10.37;;;;;;;-141.97;71.89;47534.44;4956590;28;20172;-78
2022/10/08 05:14:05;;;;;;;24.63;12.37;;;;;;;-141.97;72.46;47524.84;4944150;28;20189;-78
2022/10/08 05:16:30;;;;;;;16.00;8.17;;;;;;;-141.97;72.63;47482.56;4947070;29;20192;-78
2022/10/08 05:18:56;;;;;;;14.47;8.10;;;;;;;-141.97;72.63;47538.28;4955964;28;20166;-78
2022/10/08 05:21:24;;;;;;;12.43;6.93;;;;;;;-141.97;71.61;47605.56;4956111;28;20173;-78
2022/10/08 05:23:56;;;;;;;12.57;6.80;;;;;;;-141.97;70.82;47497.94;4956236;28;20253;-78
2022/10/08 05:26:27;;;;;;;11.77;6.87;;;;;;;-141.97;70.96;47521.00;4955965;28;20229;-78
2022/10/08 05:28:55;;;;;;;16.03;7.30;;;;;;;-141.97;70.22;47555.59;4956178;28;20169;-78
2022/10/08 05:31:21;;;;;;;11.87;6.30;;;;;;;-141.97;70.16;47538.28;4955471;28;20528;-78
2022/10/08 05:33:46;;;;;;;10.73;6.60;;;;;;;-141.97;69.98;47557.53;4955656;28;20243;-78
2022/10/08 05:36:18;;;;;;;10.40;6.77;;;;;;;-141.97;68.76;47522.91;4956076;28;20641;-77
2022/10/08 05:38:44;;;;;;;13.47;7.23;;;;;;;-141.97;68.88;47586.34;4956171;28;20160;-77
2022/10/08 05:41:16;;;;;;;12.93;7.10;;;;;;;-141.97;69.52;47551.75;4955631;28;20260;-78
2022/10/08 05:43:42;;;;;;;12.97;7.20;;;;;;;-141.97;69.86;47511.38;4955830;28;20177;-79
2022/10/08 05:46:08;;;;;;;12.07;7.67;;;;;;;-141.97;68.62;47532.53;4955634;28;20200;-78
2022/10/08 05:48:34;;;;;;;15.37;8.23;;;;;;;-141.97;68.48;47515.22;4955480;28;20649;-79
2022/10/08 05:51:07;;;;;;;14.87;7.97;;;;;;;-141.97;68.38;47496.00;4954110;29;20200;-78
2022/10/08 05:53:37;;;;;;;13.60;7.50;;;;;;;-141.97;68.53;47478.72;4963574;28;20180;-79
2022/10/08 05:56:05;;;;;;;13.27;7.27;;;;;;;-141.97;68.47;47515.22;4974692;28;20189;-79
2022/10/08 05:58:33;;;;;;;19.40;9.77;;;;;;;-141.97;67.72;47565.22;4974813;28;20180;-79
2022/10/08 06:01:03;;;;;;;19.27;10.23;;;;;;;-141.97;66.28;47536.38;4974779;28;20165;-79
2022/10/08 06:03:29;;;;;;;13.90;7.40;;;;;;;-141.97;66.59;47546.00;4974774;28;20663;-79
2022/10/08 06:06:00;;;;;;;11.83;6.90;;;;;;;-141.97;66.63;47488.31;4974838;28;20184;-79
2022/10/08 06:08:25;;;;;;;15.30;8.23;;;;;;;-141.97;66.22;47615.19;4974737;28;20179;-83
2022/10/08 06:10:51;;;;;;;15.33;8.53;;;;;;;-141.97;65.50;47686.31;4974275;28;20203;-82
2022/10/08 06:13:21;;;;;;;17.30;8.10;;;;;;;-141.97;64.40;47530.59;4975324;28;20219;-81
2022/10/08 06:16:01;;;;;;;15.93;8.70;;;;;;;-141.97;63.21;47499.84;4976285;28;20314;-81
2022/10/08 06:18:29;;;;;;;19.97;10.23;;;;;;;-141.97;62.53;47486.41;4974924;28;20180;-81
2022/10/08 06:20:54;;;;;;;14.90;8.00;;;;;;;-141.97;62.32;47617.09;4969163;28;20181;-80
2022/10/08 06:23:21;;;;;;;13.63;7.83;;;;;;;-141.97;62.15;47524.84;4953989;28;20200;-82
2022/10/08 06:25:46;;;;;;;10.63;7.17;;;;;;;-141.97;62.07;47526.75;4955463;28;20172;-81
2022/10/08 06:28:12;;;;;;;12.07;6.83;;;;;;;-141.97;61.59;47509.47;4955460;28;20169;-81
2022/10/08 06:30:41;;;;;;;10.27;6.30;;;;;;;-141.97;61.66;47438.34;4955092;28;20196;-82
2022/10/08 06:33:08;;;;;;;17.70;8.50;;;;;;;-141.97;61.25;47615.19;4955128;28;20645;-81
2022/10/08 06:35:34;;;;;;;10.43;6.97;;;;;;;-141.97;60.53;47542.16;4955235;28;20181;-81
2022/10/08 06:37:59;;;;;;;11.07;6.23;;;;;;;-141.97;60.01;47507.53;4955086;28;20276;-81
2022/10/08 06:40:24;;;;;;;10.73;6.20;;;;;;;-141.97;59.17;47434.50;4954674;28;20693;-82
2022/10/08 06:42:51;;;;;;;9.50;5.80;;;;;;;-141.97;58.20;47522.91;4954828;28;20571;-81
2022/10/08 06:45:16;;;;;;;10.47;5.63;;;;;;;-141.97;57.46;47503.69;4954600;28;20705;-81
2022/10/08 06:47:41;;;;;;;13.47;8.00;;;;;;;-141.97;55.68;47509.47;4953200;29;20172;-82
2022/10/08 06:50:07;;;;;;;8.60;5.47;;;;;;;-141.97;55.55;47509.47;4954496;28;20283;-81
2022/10/08 06:52:32;;;;;;;10.47;5.60;;;;;;;-141.97;54.78;47507.53;4954523;28;20173;-81
2022/10/08 06:54:58;;;;;;;11.00;5.60;;;;;;;-141.97;54.14;47519.06;4954057;28;20260;-80
2022/10/08 06:57:23;;;;;;;8.00;5.10;;;;;;;-141.97;53.76;47503.69;4956273;28;20616;-79
2022/10/08 06:59:48;;;;;;;10.33;5.87;;;;;;;-141.97;52.68;47557.53;4955294;28;20177;-80
2022/10/08 07:02:14;;;;;;;11.70;6.83;;;;;;;-141.97;51.34;47519.06;4957780;28;20188;-80
2022/10/08 07:04:39;;;;;;;12.73;7.20;;;;;;;-141.97;49.88;47522.91;4960046;28;20472;-81
2022/10/08 07:07:05;;;;;;;11.27;5.57;;;;;;;-141.97;49.08;47553.69;4954068;28;20208;-80
2022/10/08 07:09:30;;;;;;;8.97;5.30;;;;;;;-141.97;48.80;47634.41;4953998;28;20275;-80
2022/10/08 07:11:55;;;;;;;10.73;6.90;;;;;;;-141.97;47.76;47507.53;4954532;28;20181;-80
2022/10/08 07:14:21;;;;;;;7.03;4.97;;;;;;;-141.97;47.37;47472.94;4953804;28;20173;-81
2022/10/08 07:16:46;;;;;;;13.10;7.93;;;;;;;-141.97;47.66;47526.75;4953906;28;20329;-80
2022/10/08 07:19:12;;;;;;;8.70;4.97;;;;;;;-141.97;46.79;47486.41;4953830;28;20614;-80
2022/10/08 07:21:37;;;;;;;7.70;4.60;;;;;;;-141.97;47.17;47530.59;4953827;28;20176;-80
2022/10/08 07:24:03;;;;;;;7.73;5.20;;;;;;;-141.97;46.07;47511.38;4953784;28;20169;-80
2022/10/08 07:26:31;;;;;;;6.40;4.60;;;;;;;-141.97;44.98;47484.47;4953812;28;20758;-80
2022/10/08 07:29:02;;;;;;;11.03;6.93;;;;;;;-141.97;43.69;47472.94;4954207;28;20173;-81
2022/10/08 07:31:30;;;;;;;7.40;4.90;;;;;;;-141.97;43.48;47607.50;4953909;28;20688;-80
2022/10/08 07:34:01;;;;;;;6.20;4.20;;;;;;;-141.97;42.03;47472.94;4953742;28;20193;-81
2022/10/08 07:36:28;;;;;;;8.87;4.57;;;;;;;-141.97;41.86;47480.63;4952605;29;20189;-80
2022/10/08 07:38:58;;;;;;;7.67;4.90;;;;;;;-141.97;40.72;47461.41;4953782;28;20184;-80
2022/10/08 07:41:24;;;;;;;8.57;5.40;;;;;;;-141.97;39.88;47469.09;4953501;28;20177;-81
2022/10/08 07:43:51;;;;;;;9.40;5.90;;;;;;;-141.97;39.62;47478.72;4953777;28;20268;-80
2022/10/08 07:46:17;;;;;;;7.43;4.47;;;;;;;-141.97;39.55;47494.09;4953501;28;20248;-80
2022/10/08 07:48:42;;;;;;;8.73;4.33;;;;;;;-141.97;39.32;47453.72;4953210;28;20173;-80
2022/10/08 07:51:10;;;;;;;6.20;4.33;;;;;;;-141.97;39.16;47488.31;4953378;28;20205;-80
2022/10/08 07:53:37;;;;;;;7.83;5.50;;;;;;;-141.97;38.86;47474.88;4956455;28;20177;-81
2022/10/08 07:56:03;;;;;;;11.43;4.80;;;;;;;-141.97;38.50;47455.66;4972561;28;20578;-81
2022/10/08 07:58:29;;;;;;;6.53;4.47;;;;;;;-141.97;38.29;47465.25;4972995;28;20194;-81
2022/10/08 08:00:56;;;;;;;13.87;9.00;;;;;;;-141.97;37.87;47365.31;4972705;28;20269;-79
2022/10/08 08:03:22;;;;;;;11.00;6.13;;;;;;;-141.97;37.51;47472.94;4972677;28;20648;-80
2022/10/08 08:05:48;;;;;;;6.93;5.20;;;;;;;-141.97;37.38;47434.50;4973014;28;20172;-80
2022/10/08 08:08:13;;;;;;;7.50;5.10;;;;;;;-141.97;37.50;47461.41;4972539;28;20183;-80
2022/10/08 08:10:39;;;;;;;9.53;5.90;;;;;;;-141.97;37.77;47446.03;4975130;28;20238;-79
2022/10/08 08:13:05;;;;;;;6.97;5.20;;;;;;;-141.97;37.28;47505.63;4975757;28;20163;-80
2022/10/08 08:15:30;;;;;;;8.83;5.23;;;;;;;-141.97;36.68;47469.09;4958410;28;20172;-81
2022/10/08 08:17:55;;;;;;;9.00;5.83;;;;;;;-141.97;36.79;47419.13;4974547;28;20543;-81
2022/10/08 08:20:21;;;;;;;6.40;4.77;;;;;;;-141.97;36.64;47461.41;4973698;28;20268;-81
2022/10/08 08:22:46;;;;;;;6.63;4.60;;;;;;;-141.97;36.62;47438.34;4972463;28;20243;-80
2022/10/08 08:25:12;;;;;;;7.40;4.90;;;;;;;-141.97;36.00;47580.59;4973036;28;20185;-80
2022/10/08 08:27:37;;;;;;;7.33;4.80;;;;;;;-141.97;35.77;47396.06;4973792;28;20186;-80
2022/10/08 08:30:03;;;;;;;6.77;4.40;;;;;;;-141.97;35.20;47421.06;4973432;28;20202;-80
2022/10/08 08:32:29;;;;;;;7.60;4.40;;;;;;;-141.97;34.65;47432.59;4972536;28;20168;-80
2022/10/08 08:34:54;;;;;;;6.37;4.60;;;;;;;-141.97;34.32;47409.53;4972723;28;20196;-79
2022/10/08 08:37:19;;;;;;;8.53;4.70;;;;;;;-141.97;34.17;47422.97;4972424;28;20633;-78
2022/10/08 08:39:45;;;;;;;9.43;4.50;;;;;;;-141.97;34.82;47469.09;4972440;28;20203;-80
2022/10/08 08:42:10;;;;;;;6.77;4.60;;;;;;;-141.97;34.59;47461.41;4972097;28;20231;-80
2022/10/08 08:44:39;;;;;;;6.53;4.33;;;;;;;-141.97;34.14;47430.66;4972151;28;20165;-80
2022/10/08 08:47:13;;;;;;;6.13;4.20;;;;;;;-141.97;34.33;47576.75;4972411;28;20239;-79
2022/10/08 08:49:46;;;;;;;12.73;7.60;;;;;;;-141.97;34.34;47411.44;4972329;28;20595;-80
2022/10/08 08:52:15;;;;;;;6.07;4.20;;;;;;;-141.97;33.95;47446.03;4972259;28;20164;-80
2022/10/08 08:54:52;;;;;;;7.57;5.03;;;;;;;-141.97;33.87;47417.22;4971827;28;20267;-80
2022/10/08 08:57:29;;;;;;;9.03;5.27;;;;;;;-141.97;33.58;47422.97;4972239;28;20164;-80
2022/10/08 09:00:00;;;;;;;7.53;4.70;;;;;;;-141.97;33.32;47419.13;4972161;28;20175;-80
2022/10/08 09:02:30;;;;;;;5.93;4.50;;;;;;;-141.97;33.61;47422.97;4972702;28;20183;-80
2022/10/08 09:05:01;;;;;;;9.30;4.80;;;;;;;-141.97;33.38;47367.25;4972386;28;20704;-80
2022/10/08 09:07:35;;;;;;;6.93;4.87;;;;;;;-141.97;33.72;47430.66;4974464;28;20176;-80
2022/10/08 09:10:05;;;;;;;7.57;4.70;;;;;;;-141.97;33.91;47411.44;4976829;28;20583;-79
2022/10/08 09:12:36;;;;;;;6.93;4.90;;;;;;;-141.97;33.47;47409.53;4976130;28;20172;-80
2022/10/08 09:15:04;;;;;;;9.30;4.87;;;;;;;-141.97;33.07;47396.06;4976032;28;20179;-80
2022/10/08 09:17:37;;;;;;;6.23;4.77;;;;;;;-141.97;33.43;47422.97;4975531;28;20175;-80
2022/10/08 09:20:03;;;;;;;7.13;4.80;;;;;;;-141.97;34.08;47430.66;4975642;28;20168;-80
2022/10/08 09:22:39;;;;;;;8.27;4.97;;;;;;;-141.97;33.94;47413.38;4975294;28;20660;-80
2022/10/08 09:25:11;;;;;;;7.07;5.00;;;;;;;-141.97;33.49;47407.59;4975721;28;20633;-80
2022/10/08 09:27:45;;;;;;;9.03;4.93;;;;;;;-141.97;33.55;47405.69;4975598;28;20776;-80
2022/10/08 09:30:38;;;;;;;6.30;4.83;;;;;;;-141.97;33.05;47415.28;4974883;28;20212;-80
2022/10/08 09:33:18;;;;;;;9.90;5.30;;;;;;;-141.97;33.12;47407.59;4974999;28;20176;-80
2022/10/08 09:35:46;;;;;;;7.90;5.30;;;;;;;-141.97;32.62;47430.66;4975133;28;20619;-80
2022/10/08 09:38:23;;;;;;;9.10;5.57;;;;;;;-141.97;32.77;47403.75;4975101;28;20183;-80
2022/10/08 09:41:02;;;;;;;7.20;4.70;;;;;;;-141.97;32.48;47484.47;4975037;28;20211;-79
2022/10/08 09:43:28;;;;;;;6.67;4.97;;;;;;;-141.97;32.65;47390.31;4975105;28;20168;-80
2022/10/08 09:45:54;;;;;;;5.60;4.70;;;;;;;-141.97;33.26;47373.00;4974740;28;20257;-80
2022/10/08 09:48:24;;;;;;;8.03;4.80;;;;;;;-141.97;32.58;47415.28;4975128;28;20556;-81
2022/10/08 09:51:05;;;;;;;6.83;4.40;;;;;;;-141.97;32.31;47413.38;4974675;28;20658;-79
2022/10/08 09:53:40;;;;;;;6.67;4.80;;;;;;;-141.97;31.95;47382.63;4975312;28;20168;-79
2022/10/08 09:56:08;;;;;;;7.63;4.80;;;;;;;-141.97;31.88;47403.75;4975024;28;20190;-78
2022/10/08 09:58:47;;;;;;;4.87;4.30;;;;;;;-141.97;31.74;47361.47;4974875;28;20199;-79
2022/10/08 10:01:14;;;;;;;6.27;4.73;;;;;;;-141.97;31.50;47403.75;4974482;28;20575;-79
2022/10/08 10:03:49;;;;;;;6.53;4.70;;;;;;;-141.97;31.55;47369.16;4974729;28;20606;-79
2022/10/08 10:06:14;;;;;;;6.17;4.60;;;;;;;-141.97;31.35;47353.78;4974619;28;20706;-80
2022/10/08 10:08:53;;;;;;;8.07;4.43;;;;;;;-141.97;31.26;47642.09;4974705;28;20184;-80
2022/10/08 10:11:25;;;;;;;5.63;4.40;;;;;;;-141.97;31.33;47365.31;4974467;28;20331;-79
2022/10/08 10:13:50;;;;;;;5.43;4.77;;;;;;;-141.97;31.04;47403.75;4974469;28;20637;-79
2022/10/08 10:16:23;;;;;;;6.47;4.63;;;;;;;-141.97;31.26;47382.63;4974371;28;20172;-80
2022/10/08 10:18:59;;;;;;;7.50;4.57;;;;;;;-141.97;31.09;47373.00;4973058;28;20248;-80
2022/10/08 10:21:35;;;;;;;5.60;4.23;;;;;;;-141.97;30.92;47421.06;4974188;28;20263;-79
2022/10/08 10:24:24;;;;;;;6.20;4.53;;;;;;;-141.97;31.24;47373.00;4974673;28;20536;-80
2022/10/08 10:26:54;;;;;;;5.07;4.30;;;;;;;-141.97;30.98;47426.81;4974275;28;20199;-79
2022/10/08 10:29:21;;;;;;;6.27;4.07;;;;;;;-141.97;31.09;47399.91;4974250;28;20168;-79
2022/10/08 10:31:55;;;;;;;8.60;4.77;;;;;;;-141.97;31.02;47378.78;4974217;28;20196;-79
2022/10/08 10:34:26;;;;;;;4.33;3.93;;;;;;;-141.97;30.59;47419.13;4974442;28;20215;-80
2022/10/08 10:36:55;;;;;;;5.87;3.90;;;;;;;-141.97;31.02;47422.97;4974018;28;20670;-80
2022/10/08 10:39:32;;;;;;;5.70;3.83;;;;;;;-141.97;30.88;47394.16;4973895;28;20178;-80
2022/10/08 10:42:33;;;;;;;3.63;3.33;;;;;;;-141.97;29.55;47405.69;4973889;28;20172;-80
2022/10/08 10:45:19;;;;;;;3.93;3.50;;;;;;;-141.97;29.69;47392.22;4974202;28;20176;-80
2022/10/08 10:47:45;;;;;;;5.97;3.40;;;;;;;-141.97;29.81;47432.59;4974213;28;20219;-80
2022/10/08 10:50:13;;;;;;;4.43;3.40;;;;;;;-141.97;29.81;47365.31;4973920;28;20203;-80
2022/10/08 10:53:20;;;;;;;3.33;3.00;;;;;;;-141.97;29.74;47369.16;4973744;28;20514;-79
2022/10/08 10:56:10;;;;;;;4.40;3.20;;;;;;;-141.97;30.55;47388.38;4914453;29;20237;-79
2022/10/08 10:58:59;;;;;;;4.23;3.67;;;;;;;-141.97;30.83;47376.84;4898196;29;20178;-79
2022/10/08 11:02:01;;;;;;;4.03;3.50;;;;;;;-141.97;30.30;47417.22;4913991;29;20209;-80
2022/10/08 11:04:51;;;;;;;4.50;3.47;;;;;;;-141.97;30.87;47401.84;4914163;29;20260;-80
2022/10/08 11:07:43;;;;;;;6.10;3.57;;;;;;;-141.97;30.72;47411.44;4914086;29;20200;-79
2022/10/08 11:10:44;;;;;;;4.07;3.50;;;;;;;-141.97;30.57;47407.59;4913891;29;20713;-79
2022/10/08 11:13:17;;;;;;;6.50;3.83;;;;;;;-141.97;30.70;47426.81;4913847;29;20315;-80
2022/10/08 11:15:50;;;;;;;6.60;3.73;;;;;;;-141.97;30.41;47415.28;4913832;29;20257;-79
2022/10/08 11:18:34;;;;;;;3.97;3.30;;;;;;;-141.97;30.63;47409.53;4914180;29;20318;-80
2022/10/08 11:21:18;;;;;;;4.30;3.70;;;;;;;-141.97;30.72;47373.00;4897801;29;20182;-79
2022/10/08 11:24:12;;;;;;;8.60;3.53;;;;;;;-141.97;30.58;47392.22;4913562;29;20276;-80
2022/10/08 11:26:52;;;;;;;3.90;3.50;;;;;;;-141.97;30.28;47392.22;4913827;29;20194;-80